Flight Track Log - Related Links

Times and Time Zones

All times are in EDT time to prevent confusion due to time zone crossing. See the N566UA flight status page for this flight to view local times or setup timezone preferences in your user account.

Time Position Orientation Groundspeed Altitude Reporting Facility
EDT Latitude Longitude Course Direction KTS MPH feet Rate Location/Type
Mon 03:42:00 PM 42.3850 -70.8519 283° West 239 275 3,800  Level Boston Center
Mon 03:43:01 PM 42.4278 -70.7806 51° Northeast 238 274 6,100 2,500 Climbing Boston Center
Mon 03:44:00 PM 42.4989 -70.7842 358° North 215 247 8,800 2,420 Climbing Boston Center
Mon 03:45:00 PM 42.6924 -71.0751 300° West  Level FlightAware Approximate
Mon 03:45:00 PM 42.5500 -70.8647 311° West 230 265 10,900  Level Boston Center
Mon 03:46:00 PM 42.7505 -71.2020 289° West  Level FlightAware Approximate
Mon 03:46:01 PM 42.6056 -70.9592 309° West 286 329 12,900  Level Boston Center
Mon 03:46:58 PM 42.6608 -71.0622 306° West 335 386 15,300 2,288 Climbing Boston Center
Mon 03:47:00 PM 42.7773 -71.3466 283° West  Level FlightAware Approximate
Mon 03:47:59 PM 42.7100 -71.1658 303° West 340 391 17,400  Level Boston Center
Mon 03:48:59 PM 42.7364 -71.2981 285° West 340 391 19,100 1,983 Climbing Boston Center
Mon 03:50:00 PM 42.7544 -71.4333 280° West 360 414 21,400 1,934 Climbing Boston Center
Mon 03:51:00 PM 42.7639 -71.5692 275° West 360 414 23,000 1,700 Climbing Boston Center
Mon 03:52:00 PM 42.7794 -71.7103 279° West 370 426 24,800 1,587 Climbing Boston Center
Mon 03:53:01 PM 42.7947 -71.8517 278° West 375 432 26,200 1,424 Climbing Boston Center
Mon 03:53:58 PM 42.8100 -71.9958 278° West 381 438 27,600 1,475 Climbing Boston Center
Mon 03:54:59 PM 42.8253 -72.1458 278° West 391 450 29,100 1,279 Climbing Boston Center
Mon 03:56:00 PM 42.8442 -72.2872 280° West 391 450 30,200 1,261 Climbing Boston Center
Mon 03:56:58 PM 42.8611 -72.4344 279° West 391 450 31,600 908 Climbing Boston Center
Mon 03:57:59 PM 42.8756 -72.5761 278° West 391 450 32,000 197 Climbing Boston Center
Mon 03:59:00 PM 42.8814 -72.7233 273° West 386 444 32,000  Level Boston Center
Mon 04:00:01 PM 42.8956 -72.8708 278° West 386 444 32,000  Level Boston Center
Mon 04:00:58 PM 42.9181 -73.0042 283° West 393 452 32,000  Level Boston Center
Mon 04:01:58 PM 42.9358 -73.1519 279° West 393 452 32,000  Level Boston Center
Mon 04:02:59 PM 42.9472 -73.3053 276° West 398 458 32,000  Level Boston Center
Mon 04:03:59 PM 42.9522 -73.4669 272° West 398 458 32,000  Level Boston Center
Mon 04:05:00 PM 42.9675 -73.6147 278° West 398 458 32,000  Level Boston Center
Mon 04:05:58 PM 42.9783 -73.7625 276° West 398 458 32,000  Level Boston Center
Mon 04:06:58 PM 42.9869 -73.9161 274° West 403 464 32,000  Level Boston Center
Mon 04:07:58 PM 42.9975 -74.0611 276° West 403 464 32,000  Level Boston Center
Mon 04:08:59 PM 43.0078 -74.2089 275° West 403 464 32,000  Level Boston Center
Mon 04:09:58 PM 43.0200 -74.3569 276° West 403 464 32,000  Level Boston Center
Mon 04:10:58 PM 43.0256 -74.5050 273° West 403 464 32,000  Level Boston Center
Mon 04:11:59 PM 43.0353 -74.6531 275° West 403 464 32,000  Level Boston Center
Mon 04:12:59 PM 43.0450 -74.8011 275° West 403 464 32,000  Level Boston Center
Mon 04:13:59 PM 43.0542 -74.9492 275° West 403 464 32,000  Level Boston Center
Mon 04:14:59 PM 43.0617 -75.0803 275° West 403 464 32,000  Level Boston Center
Mon 04:15:59 PM 43.0728 -75.2314 276° West 403 464 32,000  Level Boston Center
Mon 04:17:10 PM 43.0828 -75.4139 274° West 403 464 32,000  Level Boston Center
Mon 04:18:11 PM 43.0914 -75.5592 275° West 403 464 32,000  Level Boston Center
Mon 04:19:11 PM 43.0994 -75.7133 274° West 403 464 32,000  Level Boston Center
Mon 04:20:12 PM 43.1056 -75.8644 273° West 408 470 32,000  Level Boston Center
Mon 04:22:08 PM 43.1219 -76.1653 274° West 419 482 32,000 -34 Level Cleveland Center
Mon 04:23:08 PM 43.1300 -76.3214 274° West 419 482 31,900  Descending Cleveland Center
Mon 04:24:08 PM 43.1356 -76.4747 273° West 419 482 32,000 50 Climbing Cleveland Center
Mon 04:25:08 PM 43.1431 -76.6278 274° West 414 476 32,000  Level Cleveland Center
Mon 04:26:08 PM 43.1506 -76.7953 274° West 414 476 32,000  Level Cleveland Center
Mon 04:27:08 PM 43.1575 -76.9486 274° West 409 471 32,000  Level Cleveland Center
Mon 04:28:08 PM 43.1644 -77.1019 274° West 409 471 32,000  Level Cleveland Center
Mon 04:29:08 PM 43.1711 -77.2553 273° West 404 465 32,000  Level Cleveland Center
Mon 04:30:08 PM 43.1772 -77.4058 273° West 404 465 32,000  Level Cleveland Center
Mon 04:31:08 PM 43.1814 -77.5567 272° West 404 465 32,000  Level Cleveland Center
Mon 04:32:08 PM 43.1869 -77.6931 273° West 404 465 32,000  Level Cleveland Center
Mon 04:33:08 PM 43.1928 -77.8439 273° West 404 465 32,000  Level Cleveland Center
Mon 04:34:08 PM 43.1961 -77.9947 272° West 404 465 32,000  Level Cleveland Center
Mon 04:35:08 PM 43.2014 -78.1453 273° West 404 465 32,000  Level Cleveland Center
Mon 04:36:08 PM 43.2067 -78.2933 273° West 404 465 32,000  Level Cleveland Center
Mon 04:37:08 PM 43.2117 -78.4439 273° West 404 465 32,000  Level Cleveland Center
Mon 04:38:08 PM 43.2183 -78.5947 274° West 404 465 32,000  Level Cleveland Center
Mon 04:39:08 PM 43.2208 -78.7458 271° West 404 465 32,000  Level Cleveland Center
Mon 04:40:04 PM 43.2167 -78.8833 268° West 400 460 32,000  Level Toronto Center
Mon 04:41:04 PM 43.2167 -79.0333 270° West 400 460 32,000  Level Toronto Center
Mon 04:42:04 PM 43.2167 -79.2000 270° West 410 472 32,000  Level Toronto Center
Mon 04:43:04 PM 43.2333 -79.3333 280° West 410 472 32,000  Level Toronto Center
Mon 04:44:04 PM 43.2333 -79.5000 270° West 400 460 32,000  Level Toronto Center
Mon 04:45:04 PM 43.2333 -79.6500 270° West 400 460 32,000 600 Level Toronto Center
Mon 04:46:04 PM 43.2333 -79.8000 270° West 390 449 33,200 1,250 Climbing Toronto Center
Mon 04:47:04 PM 43.2333 -79.9500 270° West 380 437 34,500 1,000 Climbing Toronto Center
Mon 04:48:04 PM 43.2333 -80.0833 270° West 380 437 35,200 700 Climbing Toronto Center
Mon 04:49:04 PM 43.2333 -80.2333 270° West 380 437 35,900 400 Climbing Toronto Center
Mon 04:50:04 PM 43.2500 -80.3667 280° West 380 437 36,000 50 Climbing Toronto Center
Mon 04:51:04 PM 43.2500 -80.5333 270° West 380 437 36,000  Level Toronto Center
Mon 04:52:04 PM 43.2500 -80.6667 270° West 370 426 36,000  Level Toronto Center
Mon 04:53:04 PM 43.2500 -80.8000 270° West 370 426 36,000  Level Toronto Center
Mon 04:54:04 PM 43.2333 -80.9333 260° West 370 426 36,000  Level Toronto Center
Mon 04:55:04 PM 43.2333 -81.1000 270° West 380 437 36,000  Level Toronto Center
Mon 04:56:04 PM 43.2500 -81.2333 280° West 380 437 36,000  Level Toronto Center
Mon 04:57:04 PM 43.2500 -81.4000 270° West 380 437 36,000  Level Toronto Center
Mon 04:58:04 PM 43.2500 -81.5333 270° West 380 437 36,000  Level Toronto Center
Mon 04:59:04 PM 43.2500 -81.6667 270° West 380 437 36,000  Level Toronto Center
Mon 05:00:04 PM 43.2500 -81.8333 270° West 380 437 36,000  Level Toronto Center
Mon 05:01:04 PM 43.2333 -81.9667 260° West 380 437 36,000  Level Toronto Center
Mon 05:02:04 PM 43.2500 -82.1000 280° West 380 437 36,000  Level Toronto Center
Mon 05:03:04 PM 43.2500 -82.2500 270° West 380 437 36,000  Level Toronto Center
Mon 05:04:04 PM 43.2500 -82.3833 270° West 380 437 36,000  Level Toronto Center
Mon 05:05:04 PM 43.2500 -82.5333 270° West 380 437 36,000  Level Toronto Center
Mon 05:05:56 PM 43.2561 -82.6756 273° West 384 442 36,000  Level Cleveland Center
Mon 05:06:57 PM 43.2553 -82.8236 270° West 384 442 36,000  Level Cleveland Center
Mon 05:07:56 PM 43.2544 -82.9692 270° West 384 442 36,000  Level Cleveland Center
Mon 05:08:56 PM 43.2536 -83.1117 270° West 384 442 36,000  Level Cleveland Center
Mon 05:09:56 PM 43.2522 -83.2625 269° West 389 448 36,000 100 Level Cleveland Center
Mon 05:10:56 PM 43.2508 -83.4078 269° West 389 448 36,200 350 Climbing Cleveland Center
Mon 05:11:56 PM 43.2517 -83.5419 271° West 389 448 36,700 400 Climbing Cleveland Center
Mon 05:12:56 PM 43.2481 -83.6872 268° West 383 441 37,000 150 Climbing Cleveland Center
Mon 05:13:56 PM 43.2481 -83.8383 270° West 383 441 37,000  Level Cleveland Center
Mon 05:14:56 PM 43.2475 -84.0006 270° West 388 447 37,000  Level Cleveland Center
Mon 05:16:40 PM 43.2431 -84.2394 269° West 399 459 37,000  Level Minneapolis Center
Mon 05:17:04 PM 43.2333 -84.3333 262° West 400 460 37,000  Level Toronto Center
Mon 05:18:04 PM 43.2333 -84.4833 270° West 400 460 37,000  Level Toronto Center
Mon 05:19:04 PM 43.2167 -84.6167 260° West 400 460 37,000  Level Toronto Center
Mon 05:20:04 PM 43.2167 -84.7833 270° West 400 460 37,000  Level Toronto Center
Mon 05:20:45 PM 43.2344 -84.8747 285° West 393 452 37,000  Level Chicago Center
Mon 05:21:47 PM 43.2311 -85.0206 268° West 387 445 37,000  Level Chicago Center
Mon 05:22:50 PM 43.2283 -85.1636 269° West 381 438 37,000  Level Chicago Center
Mon 05:23:52 PM 43.2250 -85.3078 268° West 381 438 37,000  Level Chicago Center
Mon 05:24:54 PM 43.2217 -85.4814 269° West 381 438 37,000  Level Chicago Center
Mon 05:25:56 PM 43.2169 -85.6292 268° West 383 441 37,000  Level Chicago Center
Mon 05:26:58 PM 43.2133 -85.7728 268° West 388 447 37,000  Level Chicago Center
Mon 05:28:00 PM 43.2094 -85.9197 268° West 393 452 37,000  Level Chicago Center
Mon 05:29:02 PM 43.2050 -86.0661 268° West 393 452 37,000  Level Chicago Center
Mon 05:30:04 PM 43.2000 -86.2425 268° West 393 452 37,000  Level Chicago Center
Mon 05:31:06 PM 43.1950 -86.3869 267° West 386 444 37,000  Level Chicago Center
Mon 05:32:08 PM 43.1906 -86.5342 268° West 389 448 37,000  Level Chicago Center
Mon 05:33:11 PM 43.1858 -86.6775 267° West 383 441 37,000  Level Chicago Center
Mon 05:34:13 PM 43.1803 -86.8219 267° West 381 438 37,000  Level Chicago Center
Mon 05:35:15 PM 43.1736 -86.9939 267° West 379 436 37,000  Level Chicago Center
Mon 05:36:17 PM 43.1669 -87.1369 266° West 378 435 37,000  Level Chicago Center
Mon 05:37:19 PM 43.1622 -87.2781 267° West 376 433 37,000  Level Chicago Center
Mon 05:38:21 PM 43.1553 -87.4389 267° West 368 423 37,000  Level Chicago Center
Mon 05:39:23 PM 43.1486 -87.5797 266° West 369 425 37,000  Level Chicago Center
Mon 05:40:26 PM 43.1428 -87.7214 267° West 370 426 37,000  Level Chicago Center
Mon 05:41:28 PM 43.1367 -87.8600 267° West 365 420 37,000  Level Chicago Center
Mon 05:42:30 PM 43.1297 -87.9989 266° West 363 418 37,000  Level Chicago Center
Mon 05:43:32 PM 43.1236 -88.1383 267° West 364 419 37,000 -145 Level Chicago Center
Mon 05:44:34 PM 43.1164 -88.3022 267° West 365 420 36,700 -484 Descending Chicago Center
Mon 05:45:36 PM 43.1203 -88.4444 272° West 370 426 36,000 -339 Descending Chicago Center
Mon 05:46:38 PM 43.1250 -88.5886 273° West 374 430 36,000  Level Chicago Center
Mon 05:47:40 PM 43.1289 -88.7283 272° West 367 422 36,000  Level Chicago Center
Mon 05:48:42 PM 43.1331 -88.8669 272° West 363 418 36,000  Level Chicago Center
Mon 05:49:45 PM 43.1364 -89.0053 272° West 362 417 36,000  Level Chicago Center
Mon 05:50:47 PM 43.1408 -89.1675 272° West 365 420 36,000  Level Chicago Center
Mon 05:51:49 PM 43.1442 -89.3078 272° West 368 423 36,000  Level Chicago Center
Mon 05:52:51 PM 43.1461 -89.4497 271° West 371 427 36,000  Level Chicago Center
Mon 05:53:53 PM 43.1447 -89.5917 269° West 373 429 36,000  Level Chicago Center
Mon 05:54:55 PM 43.1442 -89.7347 270° West 376 433 36,000 -48 Level Chicago Center
Mon 05:55:57 PM 43.1458 -89.8781 271° West 376 433 35,900 -823 Descending Chicago Center
Mon 05:56:59 PM 43.1444 -90.0417 269° West 367 422 34,300 -919 Descending Chicago Center
Mon 05:58:01 PM 43.1433 -90.1792 269° West 363 418 34,000 -145 Descending Chicago Center
Mon 05:59:03 PM 43.1431 -90.3186 270° West 354 407 34,000  Level Chicago Center
Mon 06:00:06 PM 43.1422 -90.4508 270° West 351 404 34,000  Level Chicago Center
Mon 06:01:08 PM 43.1425 -90.5806 270° West 345 397 34,000  Level Chicago Center
Mon 06:01:52 PM 43.1422 -90.6831 270° West 344 396 34,000  Level Minneapolis Center
Mon 06:02:54 PM 43.1411 -90.8131 269° West 344 396 34,000  Level Minneapolis Center
Mon 06:03:56 PM 43.1406 -90.9431 270° West 345 397 34,000  Level Minneapolis Center
Mon 06:04:57 PM 43.1392 -91.0731 269° West 346 398 34,000  Level Minneapolis Center
Mon 06:05:59 PM 43.1378 -91.2303 269° West 348 400 34,000  Level Minneapolis Center
Mon 06:07:00 PM 43.1372 -91.3611 270° West 349 402 34,000 -195 Level Minneapolis Center
Mon 06:08:02 PM 43.1358 -91.4942 269° West 353 406 33,600 -919 Descending Minneapolis Center
Mon 06:09:04 PM 43.1339 -91.6278 269° West 355 409 32,100 -1,415 Descending Minneapolis Center
Mon 06:10:05 PM 43.1297 -91.7667 268° West 367 422 30,700 -1,024 Descending Minneapolis Center
Mon 06:11:07 PM 43.1272 -91.9378 269° West 378 435 30,000 -341 Descending Minneapolis Center
Mon 06:12:08 PM 43.1247 -92.0797 269° West 379 436 30,000  Level Minneapolis Center
Mon 06:13:10 PM 43.1217 -92.2214 268° West 379 436 30,000  Level Minneapolis Center
Mon 06:14:12 PM 43.1194 -92.3617 269° West 375 432 30,000  Level Minneapolis Center
Mon 06:15:13 PM 43.1161 -92.5039 268° West 378 435 30,000  Level Minneapolis Center
Mon 06:16:15 PM 43.1114 -92.6736 268° West 378 435 30,000  Level Minneapolis Center
Mon 06:17:17 PM 43.1086 -92.8158 269° West 378 435 30,000  Level Minneapolis Center
Mon 06:18:18 PM 43.1050 -92.9569 268° West 377 434 30,000  Level Minneapolis Center
Mon 06:19:20 PM 43.1014 -93.1008 268° West 381 438 30,000  Level Minneapolis Center
Mon 06:20:21 PM 43.0967 -93.2433 267° West 378 435 30,000  Level Minneapolis Center
Mon 06:21:23 PM 43.0892 -93.3872 266° West 381 438 30,000  Level Minneapolis Center
Mon 06:22:25 PM 43.0728 -93.5589 263° West 381 438 30,000  Level Minneapolis Center
Mon 06:23:26 PM 43.0575 -93.7039 262° West 385 443 30,000  Level Minneapolis Center
Mon 06:24:28 PM 43.0458 -93.8464 264° West 384 442 30,000  Level Minneapolis Center
Mon 06:25:29 PM 43.0314 -93.9906 262° West 387 445 30,000 390 Level Minneapolis Center
Mon 06:26:31 PM 43.0175 -94.1333 262° West 385 443 30,800 976 Climbing Minneapolis Center
Mon 06:27:32 PM 43.0050 -94.2753 263° West 380 437 32,000 585 Climbing Minneapolis Center
Mon 06:28:34 PM 42.9892 -94.4444 263° West 378 435 32,000  Level Minneapolis Center
Mon 06:29:36 PM 42.9750 -94.5878 262° West 381 438 32,000  Level Minneapolis Center
Mon 06:30:37 PM 42.9578 -94.7303 261° West 379 436 32,000  Level Minneapolis Center
Mon 06:31:39 PM 42.9436 -94.8739 262° West 383 441 32,000  Level Minneapolis Center
Mon 06:32:41 PM 42.9269 -95.0183 261° West 384 442 32,000  Level Minneapolis Center
Mon 06:33:42 PM 42.9119 -95.1622 262° West 383 441 32,000  Level Minneapolis Center
Mon 06:34:44 PM 42.8967 -95.3033 262° West 379 436 32,000  Level Minneapolis Center
Mon 06:35:45 PM 42.8775 -95.4725 261° West 376 433 32,000  Level Minneapolis Center
Mon 06:36:47 PM 42.8614 -95.6147 261° West 378 435 32,000  Level Minneapolis Center
Mon 06:37:49 PM 42.8458 -95.7567 262° West 380 437 32,000  Level Minneapolis Center
Mon 06:38:50 PM 42.8292 -95.8981 261° West 379 436 32,000  Level Minneapolis Center
Mon 06:39:52 PM 42.8125 -96.0389 261° West 377 434 32,000  Level Minneapolis Center
Mon 06:40:53 PM 42.7953 -96.1833 261° West 382 440 32,000  Level Minneapolis Center
Mon 06:41:55 PM 42.7783 -96.3275 261° West 385 443 32,000  Level Minneapolis Center
Mon 06:42:57 PM 42.7614 -96.4728 261° West 388 447 32,000  Level Minneapolis Center
Mon 06:43:58 PM 42.7397 -96.6436 260° West 385 443 32,000  Level Minneapolis Center
Mon 06:45:00 PM 42.7225 -96.7869 261° West 384 442 32,000  Level Minneapolis Center
Mon 06:46:02 PM 42.7053 -96.9314 261° West 386 444 32,000  Level Minneapolis Center
Mon 06:47:03 PM 42.6872 -97.0769 260° West 389 448 32,000  Level Minneapolis Center
Mon 06:48:05 PM 42.6739 -97.1778 260° West 383 441 32,000  Level Minneapolis Center
Mon 06:49:06 PM 42.6514 -97.3522 260° West 389 448 32,000  Level Minneapolis Center
Mon 06:50:08 PM 42.6281 -97.5256 260° West 390 449 32,000  Level Minneapolis Center
Mon 06:51:10 PM 42.6089 -97.6708 260° West 392 451 32,000  Level Minneapolis Center
Mon 06:52:12 PM 42.5900 -97.8164 260° West 392 451 32,000  Level Minneapolis Center
Mon 06:53:13 PM 42.5672 -97.9808 259° West 394 453 32,000  Level Minneapolis Center
Mon 06:54:15 PM 42.5478 -98.1264 260° West 393 452 32,000  Level Minneapolis Center
Mon 06:55:17 PM 42.5286 -98.2728 260° West 395 455 32,000  Level Minneapolis Center
Mon 06:56:19 PM 42.5081 -98.4189 259° West 395 455 32,000  Level Minneapolis Center
Mon 06:57:20 PM 42.4883 -98.5642 260° West 394 453 32,000  Level Minneapolis Center
Mon 06:58:22 PM 42.4678 -98.7092 259° West 394 453 32,000  Level Minneapolis Center
Mon 06:59:26 PM 42.4353 -98.8794 256° West 391 450 32,000  Level Minneapolis Center
Mon 07:00:28 PM 42.4106 -99.0233 257° West 393 452 32,000  Level Minneapolis Center
Mon 07:01:29 PM 42.3844 -99.1667 256° West 393 452 32,000  Level Minneapolis Center
Mon 07:02:31 PM 42.3583 -99.3097 256° West 393 452 32,000  Level Minneapolis Center
Mon 07:03:35 PM 42.3328 -99.4528 256° West 394 453 32,000  Level Denver Center
Mon 07:04:37 PM 42.3061 -99.5936 256° West 388 447 32,000  Level Denver Center
Mon 07:05:38 PM 42.2758 -99.7561 256° West 387 445 32,000  Level Denver Center
Mon 07:06:40 PM 42.2489 -99.8900 255° West 386 444 32,000  Level Denver Center
Mon 07:07:42 PM 42.2197 -100.0500 256° West 393 452 32,000  Level Denver Center
Mon 07:08:44 PM 42.1936 -100.1861 256° West 393 452 32,000  Level Denver Center
Mon 07:09:45 PM 42.1633 -100.3436 256° West 391 450 32,000  Level Denver Center
Mon 07:10:47 PM 42.1375 -100.4794 256° West 390 449 32,000  Level Denver Center
Mon 07:11:49 PM 42.1064 -100.6358 255° West 389 448 32,000  Level Denver Center
Mon 07:12:51 PM 42.0808 -100.7683 255° West 383 441 32,000  Level Denver Center
Mon 07:13:53 PM 42.0553 -100.9017 256° West 385 443 32,000 -537 Level Denver Center
Mon 07:14:54 PM 42.0483 -101.0639 267° West 397 457 30,900 -976 Descending Denver Center
Mon 07:15:56 PM 42.0708 -101.2056 282° West 405 466 30,000 -435 Descending Denver Center
Mon 07:16:58 PM 42.0950 -101.3672 281° West 397 457 30,000  Level Denver Center
Mon 07:18:00 PM 42.1153 -101.5072 281° West 398 458 30,000  Level Denver Center
Mon 07:19:02 PM 42.1400 -101.6744 281° West 407 468 30,000  Level Denver Center
Mon 07:20:04 PM 42.1611 -101.8197 281° West 412 474 30,000  Level Denver Center
Mon 07:21:06 PM 42.1625 -101.9906 271° West 407 468 30,000  Level Denver Center
Mon 07:22:08 PM 42.1314 -102.1289 253° West 401 461 30,000  Level Denver Center
Mon 07:23:09 PM 42.0989 -102.2797 254° West 405 466 30,000  Level Denver Center
Mon 07:24:11 PM 42.0644 -102.4397 254° West 400 460 30,000  Level Denver Center
Mon 07:25:13 PM 42.0325 -102.5803 253° West 406 467 30,000  Level Denver Center
Mon 07:26:15 PM 42.0031 -102.7175 254° West 401 461 30,000  Level Denver Center
Mon 07:27:17 PM 41.9669 -102.8794 253° West 404 465 30,000  Level Denver Center
Mon 07:28:19 PM 41.9339 -103.0211 253° West 413 475 30,000  Level Denver Center
Mon 07:29:21 PM 41.8961 -103.1886 253° West 418 481 30,000  Level Denver Center
Mon 07:30:22 PM 41.8639 -103.3306 253° West 416 479 30,000  Level Denver Center
Mon 07:31:24 PM 41.8258 -103.4961 253° West 415 478 30,000  Level Denver Center
Mon 07:32:26 PM 41.7917 -103.6381 252° West 418 481 30,000 774 Level Denver Center
Mon 07:33:28 PM 41.7528 -103.8036 253° West 415 478 31,600 1,500 Climbing Denver Center
Mon 07:34:30 PM 41.7189 -103.9467 252° West 420 483 33,100 1,306 Climbing Denver Center
Mon 07:35:32 PM 41.6864 -104.0881 253° West 417 480 34,300 1,403 Climbing Denver Center
Mon 07:36:34 PM 41.6492 -104.2453 252° West 394 453 36,000 823 Climbing Denver Center
Mon 07:37:36 PM 41.6189 -104.3681 252° West 369 425 36,000  Level Denver Center
Mon 07:38:38 PM 41.5833 -104.5217 253° West 384 442 36,000  Level Denver Center
Mon 07:39:40 PM 41.5517 -104.6514 252° West 384 442 36,000  Level Denver Center
Mon 07:40:54 PM 41.5083 -104.8253 252° West 387 445 36,000  Level Denver Center
Mon 07:41:56 PM 41.4769 -104.9550 252° West 386 444 36,000  Level Denver Center
Mon 07:42:58 PM 41.4400 -105.1056 252° West 383 441 36,000  Level Denver Center
Mon 07:43:59 PM 41.4083 -105.2333 252° West 380 437 36,000  Level Denver Center
Mon 07:45:01 PM 41.3714 -105.3819 252° West 379 436 36,000  Level Denver Center
Mon 07:46:03 PM 41.3383 -105.5086 251° West 379 436 36,000  Level Denver Center
Mon 07:47:05 PM 41.3014 -105.6583 252° West 381 438 36,000  Level Denver Center
Mon 07:48:07 PM 41.2681 -105.7847 251° West 379 436 36,000  Level Denver Center
Mon 07:49:09 PM 41.2353 -105.9119 251° West 380 437 36,000  Level Denver Center
Mon 07:50:11 PM 41.1978 -106.0628 252° West 384 442 36,000  Level Denver Center
Mon 07:51:12 PM 41.1608 -106.2044 251° West 382 440 36,000  Level Denver Center
Mon 07:52:14 PM 41.1275 -106.3331 251° West 384 442 36,000  Level Denver Center
Mon 07:53:16 PM 41.0864 -106.4831 250° West 388 447 36,000  Level Denver Center
Mon 07:54:18 PM 41.0531 -106.6128 251° West 389 448 36,000  Level Denver Center
Mon 07:55:20 PM 41.0131 -106.7661 251° West 395 455 36,000  Level Denver Center
Mon 07:56:22 PM 40.9775 -106.8950 250° West 392 451 36,000  Level Denver Center
Mon 07:57:24 PM 40.9422 -107.0269 251° West 396 456 36,000  Level Denver Center
Mon 07:58:26 PM 40.9011 -107.1797 250° West 397 457 36,000  Level Denver Center
Mon 07:59:28 PM 40.8658 -107.3117 251° West 398 458 36,000  Level Denver Center
Mon 08:00:29 PM 40.8233 -107.4644 250° West 398 458 36,000  Level Denver Center
Mon 08:01:31 PM 40.7878 -107.5981 251° West 402 463 36,000  Level Denver Center
Mon 08:02:33 PM 40.7450 -107.7531 250° West 403 464 36,000  Level Denver Center
Mon 08:03:35 PM 40.7056 -107.8944 250° West 402 463 36,000  Level Denver Center
Mon 08:04:37 PM 40.6686 -108.0267 250° West 401 461 36,000  Level Denver Center
Mon 08:05:39 PM 40.6383 -108.1358 250° West 400 460 36,000  Level Denver Center
Mon 08:06:41 PM 40.5883 -108.3086 249° West 399 459 36,000  Level Denver Center
Mon 08:07:43 PM 40.5456 -108.4619 250° West 400 460 36,000  Level Denver Center
Mon 08:08:45 PM 40.5083 -108.5925 249° West 400 460 36,000  Level Denver Center
Mon 08:09:48 PM 40.4636 -108.7447 249° West 402 463 36,000  Level Denver Center
Mon 08:10:50 PM 40.4264 -108.8772 250° West 404 465 36,000  Level Denver Center
Mon 08:11:52 PM 40.3811 -109.0317 249° West 407 468 36,000  Level Denver Center
Mon 08:12:54 PM 40.3422 -109.1656 249° West 412 474 36,000  Level Denver Center
Mon 08:13:56 PM 40.2958 -109.3225 249° West 414 476 36,000  Level Denver Center
Mon 08:15:01 PM 40.2494 -109.4811 249° West 418 481 36,000  Level Salt Lake Center
Mon 08:16:03 PM 40.2081 -109.6172 248° West 422 486 36,000  Level Salt Lake Center
Mon 08:17:04 PM 40.1672 -109.7533 249° West 421 484 36,000  Level Salt Lake Center
Mon 08:18:06 PM 40.1197 -109.9136 249° West 424 488 36,000  Level Salt Lake Center
Mon 08:19:07 PM 40.0783 -110.0519 249° West 426 490 36,000  Level Salt Lake Center
Mon 08:20:09 PM 40.0300 -110.2136 249° West 428 493 36,000  Level Salt Lake Center
Mon 08:21:10 PM 39.9864 -110.3536 248° West 433 498 36,000  Level Salt Lake Center
Mon 08:22:12 PM 39.9367 -110.5186 249° West 437 503 36,000  Level Salt Lake Center
Mon 08:23:14 PM 39.8931 -110.6608 248° West 440 506 36,000  Level Salt Lake Center
Mon 08:24:15 PM 39.8494 -110.8042 248° West 444 511 36,000  Level Salt Lake Center
Mon 08:25:17 PM 39.7967 -110.9708 248° West 446 513 36,000  Level Salt Lake Center
Mon 08:26:18 PM 39.7517 -111.1153 248° West 448 516 36,000  Level Salt Lake Center
Mon 08:27:20 PM 39.6978 -111.2833 247° West 451 519 36,000  Level Salt Lake Center
Mon 08:28:22 PM 39.6489 -111.4425 248° West 455 524 36,000  Level Salt Lake Center
Mon 08:29:23 PM 39.6011 -111.5933 248° West 454 522 36,000  Level Salt Lake Center
Mon 08:30:25 PM 39.5511 -111.7425 247° West 451 519 36,000  Level Salt Lake Center
Mon 08:31:26 PM 39.5036 -111.8939 248° West 453 521 36,000  Level Salt Lake Center
Mon 08:32:28 PM 39.4547 -112.0450 247° West 454 522 36,000  Level Salt Lake Center
Mon 08:33:29 PM 39.4067 -112.1953 248° West 452 520 36,000  Level Salt Lake Center
Mon 08:34:31 PM 39.3575 -112.3431 247° West 450 518 36,000  Level Salt Lake Center
Mon 08:35:32 PM 39.3078 -112.4919 247° West 451 519 36,000  Level Salt Lake Center
Mon 08:36:34 PM 39.2672 -112.6586 253° West 451 519 36,000  Level Salt Lake Center
Mon 08:37:35 PM 39.2317 -112.8108 253° West 448 516 36,000  Level Salt Lake Center
Mon 08:38:37 PM 39.1967 -112.9678 254° West 453 521 36,000  Level Salt Lake Center
Mon 08:39:39 PM 39.1547 -113.1539 254° West 453 521 36,000  Level Salt Lake Center
Mon 08:40:40 PM 39.1183 -113.3094 253° West 453 521 36,000  Level Salt Lake Center
Mon 08:41:42 PM 39.0828 -113.4644 254° West 454 522 36,000  Level Salt Lake Center
Mon 08:42:43 PM 39.0458 -113.6183 253° West 453 521 36,000  Level Salt Lake Center
Mon 08:43:45 PM 39.0100 -113.7731 253° West 454 522 36,000  Level Salt Lake Center
Mon 08:44:46 PM 38.9733 -113.9278 253° West 454 522 36,000  Level Salt Lake Center
Mon 08:45:47 PM 38.9364 -114.0814 253° West 453 521 36,000  Level Salt Lake Center
Mon 08:46:49 PM 38.9008 -114.2336 253° West 448 516 36,000  Level Salt Lake Center
Mon 08:47:50 PM 38.8556 -114.4178 253° West 452 520 36,000  Level Salt Lake Center
Mon 08:48:52 PM 38.8186 -114.5714 253° West 453 521 36,000  Level Salt Lake Center
Mon 08:49:53 PM 38.7806 -114.7236 252° West 452 520 36,000  Level Salt Lake Center
Mon 08:50:55 PM 38.7422 -114.8772 252° West 453 521 36,000  Level Salt Lake Center
Mon 08:51:56 PM 38.7028 -115.0319 252° West 457 526 36,000  Level Salt Lake Center
Mon 08:52:58 PM 38.6639 -115.1839 252° West 456 525 36,000  Level Salt Lake Center
Mon 08:53:59 PM 38.6256 -115.3367 252° West 453 521 36,000  Level Salt Lake Center
Mon 08:55:01 PM 38.5822 -115.5164 253° West 449 517 36,000  Level Salt Lake Center
Mon 08:56:02 PM 38.5436 -115.6708 252° West 456 525 36,000  Level Salt Lake Center
Mon 08:57:03 PM 38.5042 -115.8250 252° West 457 526 36,000  Level Salt Lake Center
Mon 08:58:05 PM 38.4644 -115.9792 252° West 457 526 36,000  Level Salt Lake Center
Mon 08:59:06 PM 38.4236 -116.1328 251° West 458 527 36,000  Level Salt Lake Center
Mon 08:59:26 PM 38.4075 -116.1953 252° West 459 528 36,000  Level Oakland Center
Mon 09:00:27 PM 38.3669 -116.3503 252° West 462 532 36,000  Level Oakland Center
Mon 09:01:09 PM 38.3422 -116.4436 251° West 463 533 36,000  Level Salt Lake Center
Mon 09:01:28 PM 38.3261 -116.5056 252° West 461 531 36,000  Level Oakland Center
Mon 09:02:29 PM 38.2844 -116.6619 251° West 466 536 36,000  Level Oakland Center
Mon 09:03:30 PM 38.2433 -116.8169 251° West 463 533 36,000  Level Oakland Center
Mon 09:04:13 PM 38.2103 -116.9403 251° West 462 532 36,000  Level Salt Lake Center
Mon 09:05:14 PM 38.1803 -117.0978 256° West 462 532 36,000  Level Salt Lake Center
Mon 09:06:16 PM 38.1592 -117.2614 261° West 453 521 36,000  Level Salt Lake Center
Mon 09:06:33 PM 38.1533 -117.3050 260° West 450 518 36,000  Level Oakland Center
Mon 09:07:34 PM 38.1325 -117.4592 260° West 449 517 36,000  Level Oakland Center
Mon 09:08:35 PM 38.1125 -117.6150 261° West 449 517 36,000  Level Oakland Center
Mon 09:09:36 PM 38.0925 -117.7708 261° West 448 516 36,000  Level Oakland Center
Mon 09:10:37 PM 38.0731 -117.9272 261° West 447 514 36,000  Level Oakland Center
Mon 09:11:38 PM 38.0514 -118.0819 260° West 446 513 36,000  Level Oakland Center
Mon 09:12:39 PM 38.0294 -118.2367 260° West 446 513 36,000  Level Oakland Center
Mon 09:13:41 PM 38.0086 -118.3925 260° West 446 513 36,000  Level Oakland Center
Mon 09:14:41 PM 37.9875 -118.5503 260° West 451 519 36,000  Level Oakland Center
Mon 09:15:42 PM 37.9639 -118.7044 259° West 445 512 36,000  Level Oakland Center
Mon 09:16:43 PM 37.9456 -118.8561 261° West 436 502 36,000  Level Oakland Center
Mon 09:17:44 PM 37.9233 -119.0081 260° West 437 503 36,000  Level Oakland Center
Mon 09:18:45 PM 37.8978 -119.1836 260° West 438 504 36,000  Level Oakland Center
Mon 09:19:46 PM 37.8761 -119.3339 260° West 435 501 36,000 -246 Level Oakland Center
Mon 09:20:47 PM 37.8553 -119.4839 260° West 432 497 35,500 -934 Descending Oakland Center
Mon 09:21:48 PM 37.8333 -119.6294 259° West 424 488 34,100 -1,377 Descending Oakland Center
Mon 09:22:49 PM 37.8108 -119.7797 259° West 431 496 32,700 -1,230 Descending Oakland Center
Mon 09:23:50 PM 37.7886 -119.9308 260° West 435 501 31,600 -1,033 Descending Oakland Center
Mon 09:24:51 PM 37.7647 -120.0817 259° West 437 503 30,600 -787 Descending Oakland Center
Mon 09:25:52 PM 37.7419 -120.2297 259° West 431 496 30,000 -443 Descending Oakland Center
Mon 09:26:53 PM 37.7194 -120.3769 259° West 427 491 29,700 -1,131 Descending Oakland Center
Mon 09:27:54 PM 37.6964 -120.5242 259° West 427 491 27,700 -2,164 Descending Oakland Center
Mon 09:28:55 PM 37.6731 -120.6667 258° West 416 479 25,300 -2,440 Descending Oakland Center
Mon 09:29:25 PM 37.6667 -120.7500 264° West 401 461 24,000 -2,400 Descending Northern Cal TRACON
Mon 09:30:25 PM 37.6333 -120.8833 253° West 381 438 21,700 -2,100 Descending Northern Cal TRACON
Mon 09:31:25 PM 37.6167 -121.0000 260° West 363 418 19,800 -1,950 Descending Northern Cal TRACON
Mon 09:32:25 PM 37.6000 -121.1333 261° West 344 396 17,800 -1,900 Descending Northern Cal TRACON
Mon 09:33:25 PM 37.6000 -121.2333 270° West 329 379 16,000 -1,850 Descending Northern Cal TRACON
Mon 09:34:25 PM 37.5833 -121.3500 260° West 342 394 14,100 -2,000 Descending Northern Cal TRACON
Mon 09:35:31 PM 37.5667 -121.4833 261° West 343 395 11,800 -1,476 Descending Northern Cal TRACON
Mon 09:36:31 PM 37.5333 -121.6000 250° West 341 392 11,000 -750 Descending Northern Cal TRACON
Mon 09:37:31 PM 37.5167 -121.7000 258° West 299 344 10,300 -1,150 Descending Northern Cal TRACON
Mon 09:38:31 PM 37.5000 -121.8000 258° West 289 333 8,700 -1,250 Descending Northern Cal TRACON
Mon 09:39:31 PM 37.4833 -121.9000 258° West 274 315 7,800 -1,150 Descending Northern Cal TRACON
Mon 09:40:31 PM 37.5000 -121.9833 284° West 255 293 6,400 -1,100 Descending Northern Cal TRACON
Mon 09:41:31 PM 37.5333 -122.0667 297° West 243 280 5,600 -905 Descending Northern Cal TRACON
Mon 09:42:37 PM 37.5500 -122.1500 284° West 216 249 4,500 -1,000 Descending Northern Cal TRACON

Login

Don't have an account? Register now (free) for customized features, flight alerts, and more!